Fort Walton Beach, FL (32548)

5:38 AM CST on January 31, 2015 (GMT -0600)
Cinco Bayou - Pocahontas Dr. | Change Station
CLOSE
Current Station
Personal Weather Station
Location: Fort Walton Beach, FL
Elevation: 16 ft
Nearby Weather Stations

Elev 16 ft 30.43 °N, 86.62 °W | Updated 33 seconds ago

Clear
Clear
38.8 °F
Feels Like 36 °F
N
4.0
Wind Variable Wind from NNE
Gusts 5.0 mph

Today
High -- | Low -- °F
--% Chance of Precip.
Yesterday
High -- | Low -- °F
Precip. -- in
6:38 AM 5:22 PM
Waxing Gibbous, 89% visible
Pressure 30.31 in
Visibility 10.0 miles
Clouds Clear
Windchill 36 °F
Dew Point 31 °F
Humidity 74%
Rainfall 0.00 in
Snow Depth Not available.
UV 0 out of 12
Pollen 6.70 out of 12
Air Quality Not available.
Flu Activity Not available.
METAR KHRT 311058Z AUTO 05008KT 10SM CLR 04/M05 A3030 RMK AO2 SLP263 T00371047 $

More Conditions Fewer Conditions

Pressure 30.31 in
Visibility 10.0 miles
Clouds Clear
Windchill 36 °F
Dew Point 31 °F
Humidity 74%
Rainfall 0.00 in
Snow Depth Not available.
UV 0 out of 12
Pollen 6.70 out of 12
Air Quality Not available.
Flu Activity Not available.
METAR KHRT 311058Z AUTO 05008KT 10SM CLR 04/M05 A3030 RMK AO2 SLP263 T00371047 $

More Conditions Fewer Conditions

10-Day Weather Forecast

Almanac

Astronomy

Jan. 31, 2015 Rise Set
Actual Time
Civil Twilight
Nautical Twilight
Astronomical Twilight
Moon
Length of Visible Light
Length of Day
Tomorrow will be .
, % of the Moon is Illuminated

Today's Extremes

State Highs State Lows

Community

WunderPhotos

Upload Photos

1,792,032 photos uploaded!

WunderBlogs® & News

Nearby

Air Quality

  Air Quality AQ Index Pollutant
Not available.

Snow Depth

Station Depth Elevation

Earthquake Activity

City Distance Mag. Time & Date
Minimum magnitude displayed is 2.5.

Coastal Water Temperatures

Place Temperature

Nearby Weather Stations